createdAt,value
2023-06-17T00:01:40.934Z,22.70
2023-06-17T00:06:47.780Z,19.40
2023-06-17T00:11:54.742Z,20.30
2023-06-17T00:17:01.980Z,21.90
2023-06-17T00:22:10.329Z,29.60
2023-06-17T00:27:17.204Z,26.20
2023-06-17T00:32:24.393Z,30.20
2023-06-17T00:37:32.063Z,25.80
2023-06-17T00:42:39.205Z,23.60
2023-06-17T00:47:46.395Z,25.10
2023-06-17T00:52:55.398Z,24.50
2023-06-17T00:58:02.593Z,25.50
2023-06-17T01:03:10.761Z,24.70
2023-06-17T01:08:31.062Z,29.30
2023-06-17T01:13:38.977Z,29.90
2023-06-17T01:18:50.137Z,30.20
2023-06-17T01:24:00.478Z,29.50
2023-06-17T01:29:08.937Z,27.20
2023-06-17T01:34:16.767Z,27.10
2023-06-17T01:39:28.477Z,29.60
2023-06-17T01:44:37.322Z,29.60
2023-06-17T01:49:44.209Z,28.20
2023-06-17T01:54:51.676Z,34.20
2023-06-17T01:59:59.353Z,30.80
2023-06-17T02:05:07.461Z,47.10
2023-06-17T02:10:14.702Z,33.80
2023-06-17T02:15:21.747Z,31.60
2023-06-17T02:20:29.400Z,34.90
2023-06-17T02:25:38.033Z,37.70
2023-06-17T02:30:45.000Z,27.20
2023-06-17T02:35:52.346Z,29.50
2023-06-17T02:40:59.274Z,28.30
2023-06-17T02:46:06.287Z,30.20
2023-06-17T02:51:13.682Z,33.30
2023-06-17T02:56:21.116Z,32.50
2023-06-17T03:01:29.910Z,35.60
2023-06-17T03:06:37.239Z,38.00
2023-06-17T03:11:44.529Z,34.00
2023-06-17T03:16:52.947Z,38.90
2023-06-17T03:22:01.917Z,36.30
2023-06-17T03:27:13.452Z,34.80
2023-06-17T03:32:21.262Z,32.70
2023-06-17T03:37:29.385Z,34.30
2023-06-17T03:42:36.666Z,31.70
2023-06-17T03:47:43.941Z,37.20
2023-06-17T03:52:51.095Z,30.40
2023-06-17T03:57:59.234Z,28.70
2023-06-17T04:03:08.007Z,26.60
2023-06-17T04:08:15.284Z,28.90
2023-06-17T04:13:22.407Z,25.60
2023-06-17T04:18:33.010Z,23.80
2023-06-17T04:23:40.942Z,20.80
2023-06-17T04:28:48.495Z,24.00
2023-06-17T04:33:56.333Z,22.30
2023-06-17T04:39:04.501Z,25.30
2023-06-17T04:44:12.323Z,25.00
2023-06-17T04:49:19.715Z,20.90
2023-06-17T04:54:26.742Z,24.20
2023-06-17T04:59:33.949Z,21.40
2023-06-17T05:04:42.475Z,17.40
2023-06-17T05:09:49.519Z,22.60
2023-06-17T05:14:56.868Z,17.90
2023-06-17T05:20:04.203Z,17.90
2023-06-17T05:25:12.422Z,15.10
2023-06-17T05:30:20.351Z,16.60
2023-06-17T05:35:29.842Z,16.10
2023-06-17T05:40:38.178Z,15.80
2023-06-17T05:45:45.687Z,25.10
2023-06-17T05:50:53.244Z,13.30
2023-06-17T05:56:00.273Z,12.10
2023-06-17T06:01:07.353Z,14.40
2023-06-17T06:06:16.402Z,11.90
2023-06-17T06:11:23.701Z,10.00
2023-06-17T06:16:30.697Z,15.20
2023-06-17T06:21:37.689Z,14.00
2023-06-17T06:26:44.829Z,11.40
2023-06-17T06:31:53.466Z,10.00
2023-06-17T06:37:00.624Z,9.80
2023-06-17T06:42:08.959Z,11.10
2023-06-17T06:47:30.095Z,9.90
2023-06-17T06:52:45.637Z,9.10
2023-06-17T07:03:22.238Z,13.80
2023-06-17T07:08:29.368Z,13.50
2023-06-17T07:13:37.021Z,8.40
2023-06-17T07:18:44.122Z,8.50
2023-06-17T07:23:53.155Z,6.90
2023-06-17T07:29:02.091Z,10.10
2023-06-17T07:34:09.120Z,9.30
2023-06-17T07:39:16.255Z,6.20
2023-06-17T07:44:23.271Z,6.00
2023-06-17T07:49:31.028Z,9.10
2023-06-17T07:54:38.098Z,9.70
2023-06-17T07:59:46.138Z,10.70
2023-06-17T08:04:53.104Z,8.10
2023-06-17T08:10:00.131Z,7.50
2023-06-17T08:15:09.257Z,10.00
2023-06-17T08:20:17.947Z,9.30
2023-06-17T08:25:25.343Z,7.90
2023-06-17T08:30:32.347Z,6.80
2023-06-17T08:35:39.317Z,6.80
2023-06-17T08:40:48.117Z,8.30
2023-06-17T08:45:57.457Z,8.40
2023-06-17T08:51:04.689Z,8.60
2023-06-17T08:56:12.357Z,6.30
2023-06-17T09:01:21.976Z,7.00
2023-06-17T09:06:30.089Z,7.80
2023-06-17T09:11:37.068Z,6.00
2023-06-17T09:16:44.736Z,4.70
2023-06-17T09:21:51.791Z,6.10
2023-06-17T09:26:58.758Z,6.70
2023-06-17T09:32:06.330Z,5.50
2023-06-17T09:37:14.973Z,5.70
2023-06-17T09:42:23.556Z,5.40
2023-06-17T09:47:37.690Z,7.20
2023-06-17T09:52:45.577Z,5.80
2023-06-17T09:57:54.957Z,8.20
2023-06-17T10:03:02.693Z,6.60
2023-06-17T10:08:10.017Z,5.40
2023-06-17T10:13:21.217Z,6.80
2023-06-17T10:18:29.461Z,7.90
2023-06-17T10:23:38.818Z,7.50
2023-06-17T10:29:03.241Z,7.40
2023-06-17T10:34:15.890Z,8.20
2023-06-17T10:39:22.962Z,5.50
2023-06-17T10:44:44.487Z,6.40
2023-06-17T10:49:54.232Z,5.20
2023-06-17T10:55:01.320Z,5.50
2023-06-17T11:00:11.435Z,7.60
2023-06-17T11:10:29.705Z,4.90
2023-06-17T11:15:36.693Z,9.90
2023-06-17T11:20:44.094Z,6.60
2023-06-17T11:25:57.583Z,6.00
2023-06-17T11:31:04.919Z,6.30
2023-06-17T11:36:15.312Z,4.60
2023-06-17T11:41:22.672Z,6.00
2023-06-17T11:46:29.676Z,4.40
2023-06-17T11:51:37.151Z,6.20
2023-06-17T11:56:45.478Z,4.90
2023-06-17T12:01:53.819Z,4.50
2023-06-17T12:07:00.816Z,5.60
2023-06-17T12:12:11.891Z,4.00
2023-06-17T12:17:23.315Z,5.20
2023-06-17T12:22:30.303Z,5.40
2023-06-17T12:27:37.256Z,6.30
2023-06-17T12:32:45.171Z,7.00
2023-06-17T12:37:55.763Z,4.40
2023-06-17T12:43:03.034Z,4.60
2023-06-17T12:48:10.792Z,4.50
2023-06-17T12:53:17.779Z,5.50
2023-06-17T12:58:26.034Z,4.40
2023-06-17T13:03:32.876Z,4.30
2023-06-17T13:08:40.455Z,3.40
2023-06-17T13:13:47.532Z,6.40
2023-06-17T13:18:54.678Z,3.80
2023-06-17T13:24:01.836Z,4.00
2023-06-17T13:29:09.549Z,3.70
2023-06-17T13:34:17.060Z,7.30
2023-06-17T13:39:24.132Z,4.20
2023-06-17T13:44:31.033Z,4.40
2023-06-17T13:49:38.149Z,7.20
2023-06-17T13:54:45.968Z,4.80
2023-06-17T13:59:52.903Z,3.90
2023-06-17T14:05:00.267Z,4.80
2023-06-17T14:10:08.239Z,4.60
2023-06-17T14:15:15.950Z,9.30
2023-06-17T14:20:23.674Z,3.70
2023-06-17T14:25:30.979Z,4.10
2023-06-17T14:30:38.040Z,6.90
2023-06-17T14:35:45.105Z,6.50
2023-06-17T14:40:52.194Z,4.40
2023-06-17T14:45:59.990Z,8.40
2023-06-17T14:51:07.139Z,4.00
2023-06-17T14:56:26.903Z,5.50
2023-06-17T15:01:36.421Z,3.60
2023-06-17T15:06:43.857Z,4.00
2023-06-17T15:11:50.764Z,6.10
2023-06-17T15:16:58.187Z,6.00
2023-06-17T15:22:05.498Z,5.40
2023-06-17T15:27:13.595Z,5.60
2023-06-17T15:32:22.974Z,6.50
2023-06-17T15:37:32.432Z,4.40
2023-06-17T15:42:42.069Z,4.30
2023-06-17T15:47:50.732Z,4.80
2023-06-17T15:52:57.792Z,4.80
2023-06-17T15:58:04.865Z,4.30
2023-06-17T16:03:12.182Z,3.80
2023-06-17T16:08:30.946Z,6.70
2023-06-17T16:13:38.662Z,4.80
2023-06-17T16:18:45.545Z,7.40
2023-06-17T16:23:52.648Z,3.90
2023-06-17T16:28:59.615Z,3.30
2023-06-17T16:34:06.490Z,4.60
2023-06-17T16:39:13.536Z,4.00
2023-06-17T16:44:20.670Z,4.40
2023-06-17T16:49:27.680Z,5.20
2023-06-17T16:54:34.630Z,6.80
2023-06-17T16:59:41.647Z,5.60
2023-06-17T17:04:48.521Z,8.90
2023-06-17T17:09:55.441Z,7.30
2023-06-17T17:15:02.358Z,6.20
2023-06-17T17:20:11.918Z,5.30
2023-06-17T17:25:19.227Z,4.30
2023-06-17T17:30:26.757Z,4.80
2023-06-17T17:35:33.851Z,5.80
2023-06-17T17:40:40.878Z,5.80
2023-06-17T17:45:47.962Z,5.90
2023-06-17T17:50:54.852Z,7.40
2023-06-17T17:56:01.976Z,6.00
2023-06-17T18:01:08.854Z,6.00
2023-06-17T18:06:17.931Z,6.10
2023-06-17T18:11:25.500Z,10.90
2023-06-17T18:16:32.457Z,7.00
2023-06-17T18:21:39.774Z,9.10
2023-06-17T18:26:46.755Z,7.70
2023-06-17T18:31:55.116Z,12.20
2023-06-17T18:37:02.040Z,8.50
2023-06-17T18:42:10.204Z,9.10
2023-06-17T18:47:17.108Z,7.80
2023-06-17T18:52:24.041Z,6.00
2023-06-17T18:57:31.263Z,6.70
2023-06-17T19:02:38.362Z,7.70
2023-06-17T19:07:46.562Z,10.50
2023-06-17T19:12:53.580Z,8.20
2023-06-17T19:18:00.918Z,6.30
2023-06-17T19:23:08.043Z,8.00
2023-06-17T19:28:14.946Z,6.50
2023-06-17T19:33:22.848Z,8.00
2023-06-17T19:38:29.741Z,7.00
2023-06-17T19:43:37.440Z,6.50
2023-06-17T19:48:44.334Z,7.10
2023-06-17T19:53:51.842Z,6.20
2023-06-17T19:58:59.008Z,6.30
2023-06-17T20:04:06.330Z,6.60
2023-06-17T20:09:13.347Z,7.50
2023-06-17T20:14:20.304Z,7.80
2023-06-17T20:19:27.179Z,7.60
2023-06-17T20:24:34.309Z,7.20
2023-06-17T20:29:41.421Z,8.70
2023-06-17T20:34:48.528Z,8.40
2023-06-17T20:39:55.429Z,7.70
2023-06-17T20:45:02.437Z,10.10
2023-06-17T20:50:11.918Z,9.60
2023-06-17T20:55:18.814Z,10.30
2023-06-17T21:00:25.976Z,9.50
2023-06-17T21:05:32.975Z,11.20
2023-06-17T21:10:39.812Z,17.40
2023-06-17T21:15:46.741Z,14.60
2023-06-17T21:20:53.775Z,14.30
2023-06-17T21:26:01.189Z,15.50
2023-06-17T21:31:08.641Z,16.00
2023-06-17T21:36:15.855Z,13.60
2023-06-17T21:41:22.826Z,11.40
2023-06-17T21:46:32.896Z,15.30
2023-06-17T21:51:40.219Z,14.00
2023-06-17T21:56:47.192Z,15.30
2023-06-17T22:01:54.198Z,17.90
2023-06-17T22:07:01.553Z,14.30
2023-06-17T22:12:10.037Z,14.70
2023-06-17T22:17:17.099Z,14.50
2023-06-17T22:22:24.035Z,17.30
2023-06-17T22:27:31.007Z,16.60
2023-06-17T22:32:38.435Z,15.30
2023-06-17T22:37:45.411Z,18.00
2023-06-17T22:42:52.236Z,17.90
2023-06-17T22:47:59.288Z,21.00
2023-06-17T22:53:06.372Z,18.70
2023-06-17T22:58:13.302Z,25.50
2023-06-17T23:03:20.208Z,22.30
2023-06-17T23:08:27.316Z,21.60
2023-06-17T23:13:34.213Z,21.90
2023-06-17T23:18:41.134Z,22.70
2023-06-17T23:23:49.613Z,14.70
2023-06-17T23:28:57.747Z,30.40
2023-06-17T23:34:04.730Z,14.40
2023-06-17T23:39:11.815Z,19.10
2023-06-17T23:44:18.815Z,24.10
2023-06-17T23:49:25.750Z,22.20
2023-06-17T23:54:32.721Z,26.00
2023-06-17T23:59:39.850Z,24.70
